createdAt,value
2022-12-01T00:01:24.524Z,65.93
2022-12-01T00:03:51.476Z,65.68
2022-12-01T00:06:22.985Z,67.72
2022-12-01T00:09:10.904Z,59.72
2022-12-01T00:11:40.382Z,68.53
2022-12-01T00:14:09.984Z,67.13
2022-12-01T00:16:37.501Z,63.35
2022-12-01T00:19:04.717Z,73.35
2022-12-01T00:21:32.060Z,68.90
2022-12-01T00:23:59.054Z,67.45
2022-12-01T00:26:27.346Z,67.68
2022-12-01T00:28:57.013Z,61.92
2022-12-01T00:31:25.286Z,64.75
2022-12-01T00:33:52.387Z,72.72
2022-12-01T00:36:19.697Z,62.38
2022-12-01T00:38:46.844Z,67.78
2022-12-01T00:41:14.201Z,66.45
2022-12-01T00:43:41.404Z,72.88
2022-12-01T00:46:11.394Z,70.07
2022-12-01T00:48:41.302Z,68.75
2022-12-01T00:51:08.914Z,74.07
2022-12-01T00:53:35.977Z,74.15
2022-12-01T00:56:05.975Z,65.75
2022-12-01T00:58:32.953Z,67.57
2022-12-01T01:01:03.916Z,62.92
2022-12-01T01:03:32.584Z,63.97
2022-12-01T01:06:08.707Z,73.03
2022-12-01T01:11:06.733Z,72.82
2022-12-01T01:13:34.535Z,74.90
2022-12-01T01:16:08.664Z,77.30
2022-12-01T01:18:35.679Z,71.15
2022-12-01T01:21:06.009Z,76.38
2022-12-01T01:23:33.037Z,77.57
2022-12-01T01:26:09.506Z,78.97
2022-12-01T01:28:36.742Z,76.90
2022-12-01T01:31:09.454Z,73.40
2022-12-01T01:33:39.365Z,75.18
2022-12-01T01:36:07.137Z,75.47
2022-12-01T01:38:35.093Z,73.80
2022-12-01T01:41:03.174Z,75.78
2022-12-01T01:43:48.765Z,67.63
2022-12-01T01:46:19.239Z,71.10
2022-12-01T01:48:50.975Z,81.32
2022-12-01T01:51:23.758Z,81.75
2022-12-01T01:53:56.144Z,71.43
2022-12-01T01:56:24.195Z,73.63
2022-12-01T01:58:52.497Z,68.30
2022-12-01T02:01:19.987Z,70.43
2022-12-01T02:03:47.732Z,68.72
2022-12-01T02:06:15.289Z,72.68
2022-12-01T02:08:42.318Z,72.80
2022-12-01T02:11:12.226Z,84.00
2022-12-01T02:13:46.137Z,70.72
2022-12-01T02:16:15.711Z,73.47
2022-12-01T02:18:45.730Z,70.22
2022-12-01T02:21:25.403Z,70.22
2022-12-01T02:24:10.804Z,67.53
2022-12-01T02:26:50.331Z,77.07
2022-12-01T02:30:00.195Z,78.95
2022-12-01T02:32:41.740Z,70.47
2022-12-01T02:35:13.646Z,65.00
2022-12-01T02:38:00.356Z,71.43
2022-12-01T02:43:28.541Z,69.45
2022-12-01T02:46:07.014Z,72.93
2022-12-01T02:48:36.697Z,75.38
2022-12-01T02:51:12.793Z,73.90
2022-12-01T02:53:40.136Z,71.40
2022-12-01T02:56:12.342Z,74.78
2022-12-01T02:58:39.994Z,70.32
2022-12-01T03:01:44.314Z,63.88
2022-12-01T03:04:24.351Z,77.95
2022-12-01T03:07:21.317Z,76.55
2022-12-01T03:10:16.003Z,70.85
2022-12-01T03:13:05.183Z,78.28
2022-12-01T03:15:52.460Z,71.30
2022-12-01T03:18:35.566Z,81.20
2022-12-01T03:21:11.997Z,73.60
2022-12-01T03:23:42.961Z,76.35
2022-12-01T03:26:16.464Z,66.03
2022-12-01T03:29:00.833Z,75.95
2022-12-01T03:31:33.353Z,72.88
2022-12-01T03:34:28.320Z,70.70
2022-12-01T03:37:02.456Z,73.53
2022-12-01T03:39:34.940Z,73.47
2022-12-01T03:42:26.071Z,73.85
2022-12-01T03:44:56.906Z,72.38
2022-12-01T03:47:29.563Z,79.32
2022-12-01T03:49:56.895Z,73.65
2022-12-01T03:52:49.608Z,76.55
2022-12-01T03:55:31.445Z,79.38
2022-12-01T03:58:06.300Z,81.47
2022-12-01T04:00:33.956Z,79.32
2022-12-01T04:03:06.223Z,80.07
2022-12-01T04:05:34.861Z,78.75
2022-12-01T04:08:02.422Z,74.85
2022-12-01T04:10:29.424Z,76.45
2022-12-01T04:12:59.713Z,74.88
2022-12-01T04:15:29.358Z,77.20
2022-12-01T04:17:56.671Z,73.35
2022-12-01T04:20:25.543Z,86.50
2022-12-01T04:22:52.801Z,80.25
2022-12-01T04:25:19.795Z,78.13
2022-12-01T04:27:47.095Z,79.65
2022-12-01T04:30:14.368Z,79.63
2022-12-01T04:32:43.479Z,81.20
2022-12-01T04:35:12.553Z,82.25
2022-12-01T04:37:41.161Z,79.78
2022-12-01T04:40:13.744Z,86.65
2022-12-01T04:42:43.334Z,79.68
2022-12-01T04:45:10.662Z,80.15
2022-12-01T04:47:37.892Z,79.45
2022-12-01T04:50:05.439Z,75.22
2022-12-01T04:52:35.429Z,82.10
2022-12-01T04:55:04.045Z,79.38
2022-12-01T04:57:31.309Z,73.57
2022-12-01T04:59:58.184Z,83.85
2022-12-01T05:02:25.780Z,79.18
2022-12-01T05:04:52.974Z,82.63
2022-12-01T05:07:20.307Z,77.93
2022-12-01T05:09:47.619Z,77.47
2022-12-01T05:12:17.281Z,86.28
2022-12-01T05:14:46.543Z,79.60
2022-12-01T05:17:13.847Z,78.60
2022-12-01T05:19:59.318Z,78.57
2022-12-01T05:22:56.804Z,77.90
2022-12-01T05:25:13.552Z,88.20
2022-12-01T05:27:40.820Z,83.15
2022-12-01T05:30:08.389Z,77.18
2022-12-01T05:32:35.664Z,81.55
2022-12-01T05:35:02.652Z,85.55
2022-12-01T05:37:34.730Z,74.72
2022-12-01T05:40:02.124Z,77.22
2022-12-01T05:42:29.339Z,73.53
2022-12-01T05:44:56.424Z,77.70
2022-12-01T05:47:26.022Z,79.30
2022-12-01T05:49:52.982Z,79.28
2022-12-01T05:52:20.253Z,80.10
2022-12-01T05:54:47.312Z,86.28
2022-12-01T05:57:14.632Z,78.35
2022-12-01T05:59:43.839Z,85.05
2022-12-01T06:02:11.197Z,81.72
2022-12-01T06:04:38.992Z,75.45
2022-12-01T06:07:06.394Z,81.22
2022-12-01T06:09:33.492Z,86.78
2022-12-01T06:12:01.142Z,80.97
2022-12-01T06:14:28.126Z,86.60
2022-12-01T06:16:55.613Z,82.57
2022-12-01T06:19:22.754Z,80.00
2022-12-01T06:21:51.526Z,76.38
2022-12-01T06:24:20.700Z,77.25
2022-12-01T06:26:47.997Z,82.00
2022-12-01T06:29:15.226Z,82.75
2022-12-01T06:31:42.863Z,83.95
2022-12-01T06:34:10.870Z,80.55
2022-12-01T06:36:38.356Z,76.07
2022-12-01T06:39:12.161Z,75.50
2022-12-01T06:41:39.465Z,72.10
2022-12-01T06:44:06.585Z,79.03
2022-12-01T06:46:33.977Z,79.45
2022-12-01T06:49:01.007Z,74.65
2022-12-01T06:51:28.733Z,84.85
2022-12-01T06:54:05.421Z,78.20
2022-12-01T06:56:33.172Z,77.32
2022-12-01T06:59:00.569Z,79.38
2022-12-01T07:01:28.473Z,75.15
2022-12-01T07:04:00.102Z,76.45
2022-12-01T07:06:32.471Z,77.65
2022-12-01T07:08:59.488Z,81.65
2022-12-01T07:11:26.773Z,81.32
2022-12-01T07:13:57.128Z,84.47
2022-12-01T07:16:24.546Z,73.32
2022-12-01T07:18:52.720Z,71.68
2022-12-01T07:21:20.343Z,77.25
2022-12-01T07:23:47.393Z,75.50
2022-12-01T07:26:18.632Z,69.45
2022-12-01T07:28:45.989Z,73.25
2022-12-01T07:31:16.123Z,68.25
2022-12-01T07:33:46.194Z,73.28
2022-12-01T07:36:14.529Z,64.20
2022-12-01T07:38:41.951Z,71.40
2022-12-01T07:41:13.606Z,76.03
2022-12-01T07:43:43.433Z,69.45
2022-12-01T07:46:22.214Z,69.60
2022-12-01T07:48:50.739Z,65.82
2022-12-01T07:51:19.144Z,68.05
2022-12-01T07:53:47.921Z,67.35
2022-12-01T07:56:16.066Z,71.88
2022-12-01T07:58:43.422Z,72.80
2022-12-01T08:01:16.370Z,71.95
2022-12-01T08:03:43.866Z,66.55
2022-12-01T08:06:11.938Z,70.07
2022-12-01T08:08:40.787Z,74.93
2022-12-01T08:11:12.926Z,69.65
2022-12-01T08:13:41.855Z,72.65
2022-12-01T08:16:11.823Z,68.75
2022-12-01T08:18:40.914Z,67.40
2022-12-01T08:21:11.388Z,68.78
2022-12-01T08:23:38.548Z,62.30
2022-12-01T08:26:09.586Z,71.97
2022-12-01T08:28:36.975Z,67.97
2022-12-01T08:31:33.370Z,65.82
2022-12-01T08:34:00.424Z,50.33
2022-12-01T08:36:27.782Z,70.47
2022-12-01T08:38:56.308Z,69.55
2022-12-01T08:41:24.791Z,65.53
2022-12-01T08:44:00.744Z,67.50
2022-12-01T08:46:32.804Z,62.92
2022-12-01T08:49:00.494Z,70.32
2022-12-01T08:51:31.603Z,63.10
2022-12-01T08:53:59.682Z,68.05
2022-12-01T08:56:30.234Z,66.57
2022-12-01T08:59:00.021Z,73.28
2022-12-01T09:01:29.802Z,68.75
2022-12-01T09:04:10.505Z,61.88
2022-12-01T09:06:40.829Z,67.95
2022-12-01T09:09:09.585Z,62.42
2022-12-01T09:11:37.465Z,64.18
2022-12-01T09:14:07.119Z,61.38
2022-12-01T09:16:34.632Z,62.33
2022-12-01T09:19:02.343Z,61.90
2022-12-01T09:21:32.287Z,58.30
2022-12-01T09:24:01.677Z,59.80
2022-12-01T09:26:29.147Z,62.22
2022-12-01T09:28:59.158Z,59.88
2022-12-01T09:31:26.879Z,61.75
2022-12-01T09:33:58.276Z,58.28
2022-12-01T09:36:28.952Z,62.50
2022-12-01T09:38:55.992Z,57.83
2022-12-01T09:41:27.724Z,58.63
2022-12-01T09:44:05.985Z,63.75
2022-12-01T09:46:41.538Z,60.95
2022-12-01T09:49:34.423Z,57.53
2022-12-01T09:52:01.988Z,65.57
2022-12-01T09:54:29.653Z,61.05
2022-12-01T09:57:00.373Z,61.13
2022-12-01T09:59:33.272Z,57.75
2022-12-01T10:02:18.197Z,62.47
2022-12-01T10:04:47.564Z,62.17
2022-12-01T10:07:21.192Z,64.53
2022-12-01T10:09:58.364Z,56.50
2022-12-01T10:12:30.961Z,43.35
2022-12-01T10:15:11.183Z,62.17
2022-12-01T10:17:56.794Z,61.00
2022-12-01T10:20:52.634Z,61.88
2022-12-01T10:23:42.023Z,58.45
2022-12-01T10:26:28.770Z,61.15
2022-12-01T10:29:03.155Z,59.55
2022-12-01T10:31:42.341Z,58.78
2022-12-01T10:34:25.968Z,61.83
2022-12-01T10:36:52.960Z,57.10
2022-12-01T10:39:31.224Z,56.83
2022-12-01T10:42:14.862Z,60.38
2022-12-01T10:44:43.360Z,58.63
2022-12-01T10:47:36.739Z,59.03
2022-12-01T10:50:04.677Z,55.00
2022-12-01T10:52:39.306Z,63.42
2022-12-01T10:55:32.907Z,58.87
2022-12-01T10:58:09.231Z,60.05
2022-12-01T11:00:59.104Z,59.70
2022-12-01T11:03:33.782Z,57.65
2022-12-01T11:06:04.667Z,58.13
2022-12-01T11:08:52.590Z,59.53
2022-12-01T11:11:36.751Z,57.53
2022-12-01T11:14:16.833Z,60.13
2022-12-01T11:16:50.472Z,54.35
2022-12-01T11:19:23.548Z,51.20
2022-12-01T11:22:00.520Z,57.55
2022-12-01T11:24:45.454Z,61.35
2022-12-01T11:27:31.360Z,56.47
2022-12-01T11:30:04.966Z,56.88
2022-12-01T11:32:40.091Z,55.15
2022-12-01T11:35:16.938Z,58.15
2022-12-01T11:38:27.251Z,55.83
2022-12-01T11:40:57.919Z,57.43
2022-12-01T11:43:37.446Z,55.10
2022-12-01T11:46:12.017Z,58.88
2022-12-01T11:48:39.743Z,54.47
2022-12-01T11:51:12.746Z,58.10
2022-12-01T11:53:42.992Z,57.10
2022-12-01T11:56:13.807Z,58.53
2022-12-01T11:58:43.160Z,55.60
2022-12-01T12:01:22.382Z,57.45
2022-12-01T12:04:21.215Z,58.58
2022-12-01T12:06:57.350Z,53.28
2022-12-01T12:09:46.547Z,56.15
2022-12-01T12:12:51.384Z,54.03
2022-12-01T12:15:21.669Z,50.75
2022-12-01T12:17:57.742Z,54.22
2022-12-01T12:20:43.450Z,56.47
2022-12-01T12:23:10.482Z,53.83
2022-12-01T12:25:56.237Z,54.10
2022-12-01T12:29:10.789Z,51.40
2022-12-01T12:32:11.858Z,56.28
2022-12-01T12:34:48.106Z,55.25
2022-12-01T12:38:00.090Z,52.70
2022-12-01T12:40:27.473Z,52.63
2022-12-01T12:43:25.179Z,52.95
2022-12-01T12:46:01.848Z,51.17
2022-12-01T12:49:03.545Z,55.25
2022-12-01T12:51:55.195Z,54.08
2022-12-01T12:54:55.666Z,47.85
2022-12-01T12:57:25.521Z,52.55
2022-12-01T12:59:59.515Z,56.60
2022-12-01T13:02:40.988Z,56.58
2022-12-01T13:05:53.349Z,57.38
2022-12-01T13:08:26.244Z,53.10
2022-12-01T13:11:22.738Z,53.65
2022-12-01T13:13:50.058Z,54.72
2022-12-01T13:16:23.056Z,51.97
2022-12-01T13:19:07.435Z,55.65
2022-12-01T13:21:39.724Z,54.60
2022-12-01T13:24:10.629Z,50.60
2022-12-01T13:26:39.793Z,51.03
2022-12-01T13:29:09.289Z,49.35
2022-12-01T13:31:49.807Z,48.40
2022-12-01T13:34:26.164Z,47.72
2022-12-01T13:36:56.532Z,54.22
2022-12-01T13:39:27.831Z,54.33
2022-12-01T13:42:08.353Z,52.28
2022-12-01T13:44:44.571Z,52.90
2022-12-01T13:47:11.975Z,47.78
2022-12-01T13:49:44.841Z,54.75
2022-12-01T13:52:21.292Z,51.55
2022-12-01T13:55:03.628Z,51.15
2022-12-01T13:57:34.271Z,58.25
2022-12-01T14:00:01.289Z,58.53
2022-12-01T14:02:35.128Z,52.63
2022-12-01T14:05:39.661Z,55.53
2022-12-01T14:08:23.270Z,57.03
2022-12-01T14:11:01.409Z,54.53
2022-12-01T14:13:30.347Z,55.33
2022-12-01T14:16:03.796Z,52.97
2022-12-01T14:18:42.868Z,52.67
2022-12-01T14:21:12.564Z,55.90
2022-12-01T14:24:04.305Z,53.17
2022-12-01T14:26:31.688Z,58.13
2022-12-01T14:29:02.024Z,56.10
2022-12-01T14:31:35.328Z,53.83
2022-12-01T14:34:03.858Z,56.03
2022-12-01T14:36:44.156Z,59.35
2022-12-01T14:39:13.523Z,64.28
2022-12-01T14:41:45.697Z,57.78
2022-12-01T14:44:49.093Z,49.00
2022-12-01T14:47:41.956Z,54.95
2022-12-01T14:50:18.581Z,52.15
2022-12-01T14:52:53.316Z,54.90
2022-12-01T14:55:37.372Z,52.83
2022-12-01T14:58:10.213Z,51.47
2022-12-01T15:00:48.408Z,58.30
2022-12-01T15:03:15.893Z,51.25
2022-12-01T15:05:44.333Z,56.28
2022-12-01T15:08:41.002Z,62.33
2022-12-01T15:11:13.343Z,57.33
2022-12-01T15:13:52.941Z,53.25
2022-12-01T15:16:24.114Z,55.50
2022-12-01T15:18:51.901Z,55.42
2022-12-01T15:21:25.360Z,52.45
2022-12-01T15:24:21.826Z,54.50
2022-12-01T15:29:29.287Z,48.13
2022-12-01T15:32:09.169Z,51.00
2022-12-01T15:34:40.310Z,56.97
2022-12-01T15:37:14.237Z,54.60
2022-12-01T15:39:48.726Z,56.67
2022-12-01T15:42:29.533Z,54.95
2022-12-01T15:45:03.222Z,49.13
2022-12-01T15:47:36.159Z,49.13
2022-12-01T15:50:06.344Z,54.45
2022-12-01T15:52:43.083Z,52.58
2022-12-01T15:55:25.838Z,52.50
2022-12-01T15:57:54.118Z,53.75
2022-12-01T16:00:22.703Z,49.92
2022-12-01T16:02:55.693Z,54.88
2022-12-01T16:05:32.884Z,53.95
2022-12-01T16:08:21.489Z,52.95
2022-12-01T16:11:15.348Z,51.05
2022-12-01T16:13:48.866Z,54.53
2022-12-01T16:16:39.493Z,56.45
2022-12-01T16:19:10.036Z,52.35
2022-12-01T16:21:49.919Z,50.55
2022-12-01T16:24:26.633Z,53.03
2022-12-01T16:27:03.540Z,50.58
2022-12-01T16:32:20.742Z,53.38
2022-12-01T16:34:52.712Z,51.70
2022-12-01T16:37:21.727Z,53.45
2022-12-01T16:39:49.900Z,56.25
2022-12-01T16:42:21.688Z,50.90
2022-12-01T16:44:50.932Z,51.88
2022-12-01T16:47:24.477Z,52.88
2022-12-01T16:49:52.855Z,55.08
2022-12-01T16:55:41.649Z,55.22
2022-12-01T16:58:11.518Z,53.20
2022-12-01T17:00:39.180Z,49.17
2022-12-01T17:03:07.306Z,55.20
2022-12-01T17:05:37.996Z,52.35
2022-12-01T17:08:08.708Z,51.33
2022-12-01T17:10:45.740Z,46.00
2022-12-01T17:13:17.624Z,54.65
2022-12-01T17:15:49.739Z,52.22
2022-12-01T17:18:18.395Z,50.08
2022-12-01T17:20:59.383Z,95.22
2022-12-01T17:23:27.947Z,125.78
2022-12-01T17:25:57.422Z,76.35
2022-12-01T17:28:25.230Z,89.38
2022-12-01T17:30:53.140Z,64.68
2022-12-01T17:33:20.913Z,51.67
2022-12-01T17:35:50.432Z,51.83
2022-12-01T17:38:17.895Z,50.30
2022-12-01T17:40:45.742Z,51.40
2022-12-01T17:43:14.316Z,48.08
2022-12-01T17:45:43.307Z,51.78
2022-12-01T17:48:13.641Z,53.90
2022-12-01T17:50:41.454Z,52.92
2022-12-01T17:53:09.079Z,47.85
2022-12-01T17:55:40.182Z,52.72
2022-12-01T17:58:09.917Z,57.65
2022-12-01T18:00:38.538Z,49.50
2022-12-01T18:03:07.958Z,48.15
2022-12-01T18:05:37.072Z,51.15
2022-12-01T18:08:05.395Z,56.45
2022-12-01T18:10:33.370Z,48.20
2022-12-01T18:13:01.177Z,60.75
2022-12-01T18:15:34.801Z,62.80
2022-12-01T18:18:06.162Z,56.30
2022-12-01T18:20:44.054Z,58.55
2022-12-01T18:23:13.278Z,52.15
2022-12-01T18:25:41.489Z,56.35
2022-12-01T18:28:11.250Z,57.85
2022-12-01T18:30:39.748Z,59.30
2022-12-01T18:33:11.351Z,55.22
2022-12-01T18:35:44.613Z,58.25
2022-12-01T18:38:12.165Z,47.92
2022-12-01T18:40:40.385Z,55.20
2022-12-01T18:43:08.569Z,49.92
2022-12-01T18:45:40.137Z,56.08
2022-12-01T18:48:08.044Z,60.45
2022-12-01T18:50:36.375Z,54.47
2022-12-01T18:53:07.675Z,59.88
2022-12-01T18:55:39.161Z,52.28
2022-12-01T18:58:07.393Z,57.80
2022-12-01T19:00:35.560Z,54.70
2022-12-01T19:03:06.154Z,60.75
2022-12-01T19:05:39.237Z,59.35
2022-12-01T19:08:07.881Z,54.90
2022-12-01T19:10:36.220Z,60.33
2022-12-01T19:13:07.145Z,60.25
2022-12-01T19:15:38.608Z,70.70
2022-12-01T19:18:07.378Z,66.85
2022-12-01T19:20:38.118Z,64.97
2022-12-01T19:23:06.090Z,63.30
2022-12-01T19:25:34.665Z,60.30
2022-12-01T19:28:04.400Z,61.30
2022-12-01T19:30:34.783Z,60.90
2022-12-01T19:33:02.551Z,64.00
2022-12-01T19:35:33.981Z,65.88
2022-12-01T19:38:02.183Z,65.10
2022-12-01T19:40:30.865Z,60.88
2022-12-01T19:42:59.064Z,63.80
2022-12-01T19:45:30.738Z,61.97
2022-12-01T19:47:59.297Z,63.15
2022-12-01T19:50:28.203Z,60.30
2022-12-01T19:52:56.610Z,61.40
2022-12-01T19:55:25.690Z,62.83
2022-12-01T19:57:58.253Z,64.82
2022-12-01T20:00:30.497Z,61.97
2022-12-01T20:03:00.402Z,56.35
2022-12-01T20:05:30.826Z,64.82
2022-12-01T20:08:00.449Z,61.97
2022-12-01T20:10:30.640Z,58.67
2022-12-01T20:13:01.007Z,63.95
2022-12-01T20:15:29.069Z,57.20
2022-12-01T20:18:00.278Z,55.90
2022-12-01T20:20:28.472Z,56.90
2022-12-01T20:22:59.341Z,54.28
2022-12-01T20:25:27.796Z,59.03
2022-12-01T20:27:57.440Z,56.22
2022-12-01T20:30:25.568Z,55.45
2022-12-01T20:32:53.472Z,60.33
2022-12-01T20:35:22.029Z,53.47
2022-12-01T20:37:50.354Z,55.80
2022-12-01T20:40:22.676Z,61.03
2022-12-01T20:42:56.073Z,55.63
2022-12-01T20:45:24.235Z,56.20
2022-12-01T20:47:52.184Z,55.90
2022-12-01T20:50:20.212Z,56.90
2022-12-01T20:52:57.542Z,56.42
2022-12-01T20:55:26.918Z,58.85
2022-12-01T20:57:55.082Z,59.03
2022-12-01T21:00:23.770Z,60.58
2022-12-01T21:02:51.125Z,63.90
2022-12-01T21:05:21.255Z,65.22
2022-12-01T21:07:48.903Z,57.47
2022-12-01T21:10:19.951Z,63.70
2022-12-01T21:13:10.625Z,59.00
2022-12-01T21:15:51.127Z,56.50
2022-12-01T21:18:27.000Z,56.95
2022-12-01T21:21:04.005Z,64.32
2022-12-01T21:23:33.276Z,59.85
2022-12-01T21:26:00.741Z,59.05
2022-12-01T21:28:27.779Z,56.17
2022-12-01T21:31:15.616Z,62.65
2022-12-01T21:33:43.165Z,59.10
2022-12-01T21:36:27.723Z,58.67
2022-12-01T21:38:59.169Z,58.42
2022-12-01T21:41:30.480Z,64.18
2022-12-01T21:44:07.759Z,64.53
2022-12-01T21:46:35.395Z,66.82
2022-12-01T21:49:02.629Z,60.83
2022-12-01T21:51:30.933Z,59.97
2022-12-01T21:53:58.234Z,62.58
2022-12-01T21:56:27.701Z,61.47
2022-12-01T21:59:03.396Z,60.33
2022-12-01T22:01:32.244Z,63.83
2022-12-01T22:04:02.592Z,61.55
2022-12-01T22:06:37.905Z,62.30
2022-12-01T22:09:33.116Z,63.40
2022-12-01T22:12:26.073Z,63.03
2022-12-01T22:14:59.121Z,60.83
2022-12-01T22:17:27.883Z,68.00
2022-12-01T22:20:01.481Z,67.43
2022-12-01T22:22:30.449Z,65.85
2022-12-01T22:25:18.003Z,63.85
2022-12-01T22:27:45.298Z,60.50
2022-12-01T22:30:23.414Z,56.42
2022-12-01T22:32:59.272Z,60.22
2022-12-01T22:35:36.994Z,59.08
2022-12-01T22:38:37.780Z,64.28
2022-12-01T22:41:13.843Z,55.95
2022-12-01T22:43:43.829Z,62.38
2022-12-01T22:46:23.856Z,62.00
2022-12-01T22:48:52.805Z,60.97
2022-12-01T22:51:22.649Z,56.75
2022-12-01T22:53:57.763Z,59.78
2022-12-01T22:56:43.407Z,58.00
2022-12-01T22:59:19.885Z,55.72
2022-12-01T23:02:01.794Z,61.20
2022-12-01T23:04:33.156Z,60.88
2022-12-01T23:07:23.400Z,60.60
2022-12-01T23:09:50.770Z,61.00
2022-12-01T23:12:25.744Z,59.28
2022-12-01T23:14:55.760Z,47.08
2022-12-01T23:17:30.863Z,67.68
2022-12-01T23:20:10.386Z,69.10
2022-12-01T23:22:41.157Z,59.03
2022-12-01T23:25:14.658Z,64.30
2022-12-01T23:27:43.047Z,60.22
2022-12-01T23:30:12.002Z,65.30
2022-12-01T23:32:39.271Z,60.67
2022-12-01T23:35:13.518Z,57.53
2022-12-01T23:37:42.700Z,60.92
2022-12-01T23:40:21.053Z,64.15
2022-12-01T23:42:48.096Z,58.63
2022-12-01T23:45:23.942Z,61.72
2022-12-01T23:47:54.514Z,63.83
2022-12-01T23:50:25.015Z,61.13
2022-12-01T23:52:52.681Z,62.00
2022-12-01T23:55:23.217Z,59.22
2022-12-01T23:57:51.463Z,60.38
